createdAt,value
2023-03-14T00:02:03.085Z,99.90
2023-03-14T00:04:49.709Z,99.90
2023-03-14T00:07:25.776Z,99.90
2023-03-14T00:10:06.300Z,99.90
2023-03-14T00:13:00.786Z,99.90
2023-03-14T00:15:43.450Z,99.90
2023-03-14T00:18:40.783Z,99.90
2023-03-14T00:21:23.957Z,99.90
2023-03-14T00:24:01.202Z,99.90
2023-03-14T00:26:34.865Z,99.90
2023-03-14T00:29:19.277Z,99.90
2023-03-14T00:32:01.927Z,99.90
2023-03-14T00:35:10.301Z,99.90
2023-03-14T00:37:48.677Z,99.90
2023-03-14T00:40:35.487Z,99.90
2023-03-14T00:43:46.773Z,99.90
2023-03-14T00:46:36.724Z,99.90
2023-03-14T00:49:22.423Z,99.90
2023-03-14T00:52:08.348Z,99.90
2023-03-14T00:54:47.426Z,99.90
2023-03-14T00:57:19.185Z,99.90
2023-03-14T01:00:06.523Z,99.90
2023-03-14T01:03:02.596Z,99.90
2023-03-14T01:05:45.942Z,99.90
2023-03-14T01:08:28.976Z,99.90
2023-03-14T01:11:15.124Z,99.90
2023-03-14T01:13:55.591Z,99.90
2023-03-14T01:16:36.725Z,99.90
2023-03-14T01:19:26.363Z,99.90
2023-03-14T01:22:01.811Z,99.90
2023-03-14T01:24:40.982Z,99.90
2023-03-14T01:27:12.952Z,99.90
2023-03-14T01:29:43.701Z,99.90
2023-03-14T01:32:17.354Z,99.90
2023-03-14T01:35:01.571Z,99.90
2023-03-14T01:37:43.535Z,99.90
2023-03-14T01:40:24.182Z,99.90
2023-03-14T01:43:19.725Z,99.90
2023-03-14T01:46:31.091Z,99.90
2023-03-14T01:49:38.739Z,99.90
2023-03-14T01:52:40.197Z,99.90
2023-03-14T01:55:25.742Z,99.90
2023-03-14T01:58:08.355Z,99.90
2023-03-14T02:00:49.125Z,99.90
2023-03-14T02:03:41.708Z,99.90
2023-03-14T02:06:25.392Z,99.90
2023-03-14T02:08:56.884Z,99.90
2023-03-14T02:11:45.107Z,99.90
2023-03-14T02:14:52.625Z,99.90
2023-03-14T02:17:49.128Z,99.90
2023-03-14T02:21:01.168Z,99.90
2023-03-14T02:24:22.767Z,99.90
2023-03-14T02:27:15.717Z,99.90
2023-03-14T02:30:17.069Z,99.90
2023-03-14T02:32:59.278Z,99.90
2023-03-14T02:36:02.304Z,99.90
2023-03-14T02:38:48.167Z,99.90
2023-03-14T02:41:20.402Z,99.90
2023-03-14T02:44:11.314Z,99.90
2023-03-14T02:46:52.562Z,99.90
2023-03-14T02:49:37.135Z,99.90
2023-03-14T02:52:32.011Z,99.90
2023-03-14T02:55:28.857Z,99.90
2023-03-14T02:58:29.719Z,99.90
2023-03-14T03:01:15.344Z,99.90
2023-03-14T03:03:59.351Z,99.90
2023-03-14T03:06:35.959Z,99.90
2023-03-14T03:09:17.623Z,99.90
2023-03-14T03:12:00.882Z,99.90
2023-03-14T03:14:34.964Z,99.90
2023-03-14T03:17:38.844Z,99.90
2023-03-14T03:20:35.499Z,99.90
2023-03-14T03:23:42.021Z,99.90
2023-03-14T03:26:14.087Z,99.90
2023-03-14T03:28:58.983Z,99.90
2023-03-14T03:31:35.104Z,99.90
2023-03-14T03:34:10.675Z,99.90
2023-03-14T03:36:52.053Z,99.90
2023-03-14T03:39:35.668Z,99.90
2023-03-14T03:42:13.768Z,99.90
2023-03-14T03:44:44.466Z,99.90
2023-03-14T03:47:28.203Z,99.90
2023-03-14T03:50:18.325Z,99.90
2023-03-14T03:53:09.115Z,99.90
2023-03-14T03:55:59.958Z,99.90
2023-03-14T03:58:41.310Z,99.90
2023-03-14T04:01:35.086Z,99.90
2023-03-14T04:04:06.454Z,99.90
2023-03-14T04:07:05.200Z,99.90
2023-03-14T04:09:52.118Z,99.90
2023-03-14T04:12:46.200Z,99.90
2023-03-14T04:15:37.179Z,99.90
2023-03-14T04:18:26.291Z,99.90
2023-03-14T04:21:05.445Z,99.90
2023-03-14T04:24:20.537Z,99.90
2023-03-14T04:27:03.116Z,99.90
2023-03-14T04:29:54.189Z,99.90
2023-03-14T04:32:47.637Z,99.90
2023-03-14T04:35:18.764Z,99.90
2023-03-14T04:38:04.212Z,99.90
2023-03-14T04:40:47.933Z,99.90
2023-03-14T04:43:34.900Z,99.90
2023-03-14T04:46:17.129Z,99.90
2023-03-14T04:48:58.788Z,99.90
2023-03-14T04:52:05.429Z,99.90
2023-03-14T04:54:50.814Z,99.90
2023-03-14T04:58:06.543Z,99.90
2023-03-14T05:01:04.122Z,99.90
2023-03-14T05:03:56.146Z,99.90
2023-03-14T05:06:51.729Z,99.90
2023-03-14T05:09:58.220Z,99.90
2023-03-14T05:13:01.728Z,99.90
2023-03-14T05:15:54.046Z,99.90
2023-03-14T05:18:45.309Z,99.90
2023-03-14T05:21:47.707Z,99.90
2023-03-14T05:24:40.522Z,99.90
2023-03-14T05:27:31.961Z,99.90
2023-03-14T05:30:32.215Z,99.90
2023-03-14T05:33:59.120Z,99.90
2023-03-14T05:36:46.604Z,99.90
2023-03-14T05:39:53.474Z,99.90
2023-03-14T05:42:44.111Z,99.90
2023-03-14T05:45:29.813Z,99.90
2023-03-14T05:48:30.253Z,99.90
2023-03-14T05:51:37.557Z,99.90
2023-03-14T05:54:25.350Z,99.90
2023-03-14T05:57:43.930Z,99.90
2023-03-14T06:00:39.143Z,99.90
2023-03-14T06:03:45.095Z,99.90
2023-03-14T06:06:25.939Z,99.90
2023-03-14T06:08:57.882Z,99.90
2023-03-14T06:11:34.878Z,99.90
2023-03-14T06:14:17.225Z,99.90
2023-03-14T06:17:00.341Z,99.90
2023-03-14T06:19:49.628Z,99.90
2023-03-14T06:22:39.490Z,99.90
2023-03-14T06:25:11.896Z,99.90
2023-03-14T06:27:55.552Z,99.90
2023-03-14T06:30:37.944Z,99.90
2023-03-14T06:33:28.593Z,99.90
2023-03-14T06:36:23.120Z,99.90
2023-03-14T06:38:56.314Z,99.90
2023-03-14T06:41:53.087Z,99.90
2023-03-14T06:44:45.668Z,99.90
2023-03-14T06:47:26.905Z,99.90
2023-03-14T06:50:17.930Z,99.90
2023-03-14T06:52:51.490Z,99.90
2023-03-14T06:55:51.751Z,99.90
2023-03-14T06:58:38.300Z,99.90
2023-03-14T07:01:31.584Z,99.90
2023-03-14T07:04:20.979Z,99.90
2023-03-14T07:07:12.023Z,99.90
2023-03-14T07:10:15.764Z,99.90
2023-03-14T07:12:47.791Z,99.90
2023-03-14T07:15:43.730Z,99.90
2023-03-14T07:18:28.960Z,99.90
2023-03-14T07:21:00.540Z,99.90
2023-03-14T07:23:39.338Z,99.90
2023-03-14T07:26:36.108Z,99.90
2023-03-14T07:29:22.863Z,99.90
2023-03-14T07:32:08.822Z,99.90
2023-03-14T07:34:42.352Z,99.90
2023-03-14T07:37:32.201Z,99.90
2023-03-14T07:40:30.549Z,99.90
2023-03-14T07:43:02.453Z,99.90
2023-03-14T07:46:00.448Z,99.90
2023-03-14T07:48:50.708Z,99.90
2023-03-14T07:51:36.737Z,99.90
2023-03-14T07:54:32.148Z,99.90
2023-03-14T07:57:18.447Z,99.90
2023-03-14T07:59:52.144Z,99.90
2023-03-14T08:02:31.871Z,99.90
2023-03-14T08:05:21.862Z,99.90
2023-03-14T08:07:56.030Z,99.90
2023-03-14T08:10:42.870Z,99.90
2023-03-14T08:14:14.127Z,99.90
2023-03-14T08:16:48.595Z,99.90
2023-03-14T08:19:43.362Z,99.90
2023-03-14T08:22:26.586Z,99.90
2023-03-14T08:25:17.498Z,99.90
2023-03-14T08:28:05.586Z,99.90
2023-03-14T08:30:59.142Z,99.90
2023-03-14T08:33:40.101Z,99.90
2023-03-14T08:36:30.144Z,99.90
2023-03-14T08:39:24.892Z,99.90
2023-03-14T08:41:56.426Z,99.90
2023-03-14T08:44:39.446Z,99.90
2023-03-14T08:47:24.907Z,99.90
2023-03-14T08:50:05.564Z,99.90
2023-03-14T08:52:59.693Z,99.90
2023-03-14T08:55:42.721Z,99.90
2023-03-14T08:58:26.132Z,99.90
2023-03-14T09:00:58.083Z,99.90
2023-03-14T09:03:43.337Z,99.90
2023-03-14T09:06:24.048Z,99.90
2023-03-14T09:09:08.252Z,99.90
2023-03-14T09:11:56.260Z,99.90
2023-03-14T09:14:42.828Z,99.90
2023-03-14T09:17:23.858Z,99.90
2023-03-14T09:20:02.011Z,99.90
2023-03-14T09:22:48.892Z,99.90
2023-03-14T09:25:23.513Z,99.90
2023-03-14T09:28:27.247Z,99.90
2023-03-14T09:31:01.972Z,99.90
2023-03-14T09:33:40.282Z,99.90
2023-03-14T09:36:35.390Z,99.90
2023-03-14T09:39:24.630Z,99.90
2023-03-14T09:42:30.142Z,99.90
2023-03-14T09:45:07.392Z,99.90
2023-03-14T09:47:56.532Z,99.90
2023-03-14T09:50:44.882Z,99.90
2023-03-14T09:53:56.300Z,99.90
2023-03-14T09:56:49.862Z,99.90
2023-03-14T09:59:45.042Z,99.90
2023-03-14T10:02:41.282Z,99.90
2023-03-14T10:05:21.192Z,99.90
2023-03-14T10:07:54.922Z,99.90
2023-03-14T10:10:37.113Z,99.90
2023-03-14T10:13:21.207Z,99.90
2023-03-14T10:16:12.502Z,99.90
2023-03-14T10:19:08.235Z,99.90
2023-03-14T10:21:58.225Z,99.90
2023-03-14T10:24:54.068Z,99.90
2023-03-14T10:27:53.055Z,99.90
2023-03-14T10:30:49.539Z,99.90
2023-03-14T10:33:39.601Z,99.90
2023-03-14T10:36:38.889Z,99.90
2023-03-14T10:39:53.968Z,99.90
2023-03-14T10:42:45.898Z,99.90
2023-03-14T10:45:54.010Z,99.90
2023-03-14T10:48:55.811Z,99.90
2023-03-14T10:51:48.560Z,99.90
2023-03-14T10:54:34.482Z,99.90
2023-03-14T10:57:22.208Z,99.90
2023-03-14T11:00:04.667Z,99.90
2023-03-14T11:03:21.989Z,99.90
2023-03-14T11:06:27.731Z,99.90
2023-03-14T11:09:17.407Z,99.90
2023-03-14T11:12:42.180Z,99.90
2023-03-14T11:15:37.408Z,99.90
2023-03-14T11:19:15.054Z,99.90
2023-03-14T11:22:02.469Z,99.90
2023-03-14T11:25:24.686Z,99.90
2023-03-14T11:28:18.063Z,99.90
2023-03-14T11:31:03.030Z,99.90
2023-03-14T11:33:42.005Z,99.90
2023-03-14T11:36:41.054Z,99.90
2023-03-14T11:39:20.611Z,99.90
2023-03-14T11:42:17.044Z,99.90
2023-03-14T11:45:17.220Z,99.90
2023-03-14T11:47:53.059Z,99.90
2023-03-14T11:50:33.150Z,99.90
2023-03-14T11:53:45.829Z,99.90
2023-03-14T11:56:35.765Z,99.90
2023-03-14T11:59:24.759Z,99.90
2023-03-14T12:02:24.885Z,99.90
2023-03-14T12:05:55.232Z,99.90
2023-03-14T12:08:59.767Z,99.90
2023-03-14T12:11:46.079Z,99.90
2023-03-14T12:14:38.233Z,99.90
2023-03-14T12:17:32.828Z,99.90
2023-03-14T12:20:20.203Z,99.90
2023-03-14T12:23:02.727Z,99.90
2023-03-14T12:26:50.159Z,99.90
2023-03-14T12:29:56.274Z,99.90
2023-03-14T12:32:38.525Z,99.90
2023-03-14T12:35:50.913Z,99.90
2023-03-14T12:38:40.322Z,99.90
2023-03-14T12:41:32.769Z,99.90
2023-03-14T12:45:15.582Z,99.90
2023-03-14T12:48:16.811Z,99.90
2023-03-14T12:51:11.634Z,99.90
2023-03-14T12:54:24.955Z,99.90
2023-03-14T12:57:27.907Z,99.90
2023-03-14T13:00:15.079Z,99.90
2023-03-14T13:03:02.111Z,99.90
2023-03-14T13:05:37.170Z,99.90
2023-03-14T13:08:15.555Z,99.90
2023-03-14T13:11:04.756Z,99.90
2023-03-14T13:14:04.969Z,99.90
2023-03-14T13:16:41.000Z,99.90
2023-03-14T13:19:36.155Z,99.90
2023-03-14T13:22:33.210Z,99.90
2023-03-14T13:25:10.809Z,99.90
2023-03-14T13:27:46.836Z,99.90
2023-03-14T13:31:06.995Z,99.90
2023-03-14T13:34:05.302Z,99.90
2023-03-14T13:36:40.006Z,99.90
2023-03-14T13:39:45.636Z,99.90
2023-03-14T13:42:30.217Z,99.90
2023-03-14T13:45:22.099Z,99.90
2023-03-14T13:48:18.081Z,99.90
2023-03-14T13:51:15.531Z,99.90
2023-03-14T13:54:02.742Z,99.90
2023-03-14T13:56:38.538Z,99.90
2023-03-14T13:59:28.252Z,99.90
2023-03-14T14:02:18.718Z,99.90
2023-03-14T14:05:30.978Z,99.90
2023-03-14T14:08:07.342Z,99.90
2023-03-14T14:10:51.482Z,99.90
2023-03-14T14:13:28.452Z,99.90
2023-03-14T14:16:12.702Z,99.90
2023-03-14T14:18:47.697Z,99.90
2023-03-14T14:21:51.366Z,99.90
2023-03-14T14:24:25.623Z,99.90
2023-03-14T14:27:27.456Z,99.90
2023-03-14T14:30:09.152Z,99.90
2023-03-14T14:32:55.778Z,99.90
2023-03-14T14:35:40.594Z,99.90
2023-03-14T14:38:30.670Z,99.90
2023-03-14T14:41:20.205Z,99.90
2023-03-14T14:44:09.866Z,99.90
2023-03-14T14:46:50.616Z,99.90
2023-03-14T14:49:43.290Z,99.90
2023-03-14T14:52:24.975Z,99.90
2023-03-14T14:55:37.564Z,99.90
2023-03-14T14:58:29.190Z,99.90
2023-03-14T15:01:28.240Z,99.90
2023-03-14T15:04:03.354Z,99.90
2023-03-14T15:06:51.449Z,99.90
2023-03-14T15:09:29.014Z,99.90
2023-03-14T15:12:04.206Z,99.90
2023-03-14T15:14:43.599Z,99.90
2023-03-14T15:17:20.483Z,99.90
2023-03-14T15:20:09.175Z,99.90
2023-03-14T15:22:39.921Z,99.90
2023-03-14T15:25:54.578Z,99.90
2023-03-14T15:28:45.590Z,99.90
2023-03-14T15:31:20.125Z,99.90
2023-03-14T15:34:00.345Z,99.90
2023-03-14T15:36:34.016Z,99.90
2023-03-14T15:39:28.635Z,99.90
2023-03-14T15:42:18.275Z,99.90
2023-03-14T15:45:05.118Z,99.90
2023-03-14T15:47:52.760Z,99.90
2023-03-14T15:50:55.759Z,99.90
2023-03-14T15:53:57.255Z,99.90
2023-03-14T15:56:55.356Z,99.90
2023-03-14T15:59:34.296Z,99.90
2023-03-14T16:02:14.468Z,99.90
2023-03-14T16:05:05.116Z,99.90
2023-03-14T16:07:59.117Z,98.30
2023-03-14T16:10:50.067Z,98.00
2023-03-14T16:13:50.232Z,99.90
2023-03-14T16:16:43.444Z,99.20
2023-03-14T16:19:29.816Z,97.40
2023-03-14T16:22:01.366Z,98.70
2023-03-14T16:24:45.561Z,98.80
2023-03-14T16:28:05.088Z,99.30
2023-03-14T16:30:55.399Z,98.70
2023-03-14T16:33:29.339Z,99.80
2023-03-14T16:36:13.124Z,99.70
2023-03-14T16:39:04.311Z,97.50
2023-03-14T16:41:41.758Z,97.80
2023-03-14T16:44:36.846Z,95.30
2023-03-14T16:47:18.292Z,96.20
2023-03-14T16:50:02.682Z,97.00
2023-03-14T16:52:50.202Z,96.60
2023-03-14T16:55:58.148Z,96.70
2023-03-14T16:58:39.016Z,96.80
2023-03-14T17:01:31.349Z,97.30
2023-03-14T17:04:12.232Z,97.50
2023-03-14T17:07:08.492Z,98.30
2023-03-14T17:10:04.680Z,98.40
2023-03-14T17:12:49.690Z,96.50
2023-03-14T17:15:25.137Z,98.40
2023-03-14T17:18:07.528Z,98.70
2023-03-14T17:21:00.773Z,99.10
2023-03-14T17:23:48.172Z,99.40
2023-03-14T17:26:44.239Z,99.40
2023-03-14T17:29:41.897Z,99.60
2023-03-14T17:32:20.495Z,99.80
2023-03-14T17:34:58.955Z,99.90
2023-03-14T17:37:39.937Z,99.90
2023-03-14T17:40:34.054Z,99.90
2023-03-14T17:43:23.800Z,99.90
2023-03-14T17:46:15.363Z,99.90
2023-03-14T17:48:50.280Z,99.90
2023-03-14T17:52:09.304Z,99.90
2023-03-14T17:54:55.781Z,99.90
2023-03-14T17:57:52.154Z,99.90
2023-03-14T18:00:34.217Z,99.90
2023-03-14T18:03:25.186Z,99.90
2023-03-14T18:06:09.105Z,99.90
2023-03-14T18:08:44.188Z,99.90
2023-03-14T18:11:25.380Z,99.90
2023-03-14T18:13:56.353Z,99.90
2023-03-14T18:16:42.129Z,99.90
2023-03-14T18:19:39.084Z,99.90
2023-03-14T18:22:20.355Z,99.90
2023-03-14T18:25:08.211Z,99.90
2023-03-14T18:27:56.319Z,99.90
2023-03-14T18:30:28.093Z,99.90
2023-03-14T18:33:18.062Z,99.90
2023-03-14T18:36:24.081Z,99.90
2023-03-14T18:38:59.108Z,99.90
2023-03-14T18:41:35.451Z,99.90
2023-03-14T18:44:21.355Z,99.90
2023-03-14T18:46:55.576Z,99.90
2023-03-14T18:50:01.154Z,99.90
2023-03-14T18:52:39.284Z,99.90
2023-03-14T18:55:29.421Z,99.90
2023-03-14T18:58:08.348Z,99.90
2023-03-14T19:00:59.644Z,99.90
2023-03-14T19:03:43.605Z,99.90
2023-03-14T19:06:25.736Z,99.90
2023-03-14T19:09:08.941Z,99.90
2023-03-14T19:11:52.421Z,99.90
2023-03-14T19:14:48.301Z,99.90
2023-03-14T19:17:29.417Z,99.90
2023-03-14T19:20:25.308Z,99.90
2023-03-14T19:23:09.160Z,99.90
2023-03-14T19:25:59.676Z,99.90
2023-03-14T19:28:37.477Z,99.90
2023-03-14T19:31:18.684Z,99.90
2023-03-14T19:34:00.000Z,99.90
2023-03-14T19:37:05.184Z,99.90
2023-03-14T19:39:50.743Z,99.90
2023-03-14T19:42:36.881Z,99.90
2023-03-14T19:45:12.154Z,99.90
2023-03-14T19:47:53.143Z,99.90
2023-03-14T19:50:36.431Z,99.90
2023-03-14T19:53:09.817Z,99.90
2023-03-14T19:55:54.935Z,99.90
2023-03-14T19:58:34.574Z,99.90
2023-03-14T20:01:06.442Z,99.90
2023-03-14T20:03:51.527Z,99.90
2023-03-14T20:06:22.159Z,99.90
2023-03-14T20:09:18.312Z,99.90
2023-03-14T20:12:40.312Z,99.90
2023-03-14T20:15:30.437Z,99.90
2023-03-14T20:18:06.345Z,99.90
2023-03-14T20:20:52.865Z,99.90
2023-03-14T20:23:34.436Z,99.90
2023-03-14T20:26:09.452Z,99.90
2023-03-14T20:29:24.615Z,99.90
2023-03-14T20:32:10.108Z,99.90
2023-03-14T20:35:17.844Z,99.90
2023-03-14T20:37:52.666Z,99.90
2023-03-14T20:40:47.242Z,99.90
2023-03-14T20:43:21.553Z,99.90
2023-03-14T20:46:23.486Z,99.90
2023-03-14T20:49:02.762Z,99.90
2023-03-14T20:51:49.199Z,99.90
2023-03-14T20:54:46.703Z,99.90
2023-03-14T20:57:17.467Z,99.90
2023-03-14T21:00:28.409Z,99.90
2023-03-14T21:03:25.529Z,99.90
2023-03-14T21:06:07.862Z,99.90
2023-03-14T21:08:47.448Z,99.90
2023-03-14T21:11:52.833Z,99.90
2023-03-14T21:14:26.433Z,99.90
2023-03-14T21:17:04.251Z,99.90
2023-03-14T21:20:02.821Z,99.90
2023-03-14T21:22:38.675Z,99.90
2023-03-14T21:25:23.596Z,99.90
2023-03-14T21:28:09.325Z,99.90
2023-03-14T21:30:52.061Z,99.90
2023-03-14T21:33:34.237Z,99.90
2023-03-14T21:36:14.716Z,99.90
2023-03-14T21:39:11.726Z,99.90
2023-03-14T21:42:12.927Z,99.90
2023-03-14T21:44:58.709Z,99.90
2023-03-14T21:47:53.002Z,99.90
2023-03-14T21:50:24.882Z,99.90
2023-03-14T21:53:13.262Z,99.90
2023-03-14T21:56:20.673Z,99.90
2023-03-14T21:59:02.297Z,99.90
2023-03-14T22:01:44.756Z,99.90
2023-03-14T22:04:20.653Z,99.90
2023-03-14T22:06:51.795Z,99.90
2023-03-14T22:09:59.187Z,99.90
2023-03-14T22:12:39.762Z,99.90
2023-03-14T22:15:19.111Z,99.90
2023-03-14T22:18:14.407Z,99.90
2023-03-14T22:21:03.123Z,99.90
2023-03-14T22:23:45.434Z,99.90
2023-03-14T22:26:45.849Z,99.90
2023-03-14T22:30:10.132Z,99.90
2023-03-14T22:32:41.194Z,99.90
2023-03-14T22:35:31.787Z,99.90
2023-03-14T22:38:10.254Z,99.90
2023-03-14T22:40:41.327Z,99.90
2023-03-14T22:43:16.184Z,99.90
2023-03-14T22:46:07.071Z,99.90
2023-03-14T22:49:10.378Z,99.90
2023-03-14T22:52:16.649Z,99.90
2023-03-14T22:54:57.399Z,99.90
2023-03-14T22:57:51.389Z,99.90
2023-03-14T23:00:55.448Z,99.90
2023-03-14T23:03:26.195Z,99.90
2023-03-14T23:06:14.164Z,99.90
2023-03-14T23:08:57.705Z,99.90
2023-03-14T23:11:38.876Z,99.90
2023-03-14T23:14:11.477Z,99.90
2023-03-14T23:17:11.216Z,99.90
2023-03-14T23:20:07.468Z,99.90
2023-03-14T23:23:09.296Z,99.90
2023-03-14T23:25:56.267Z,99.90
2023-03-14T23:28:44.404Z,99.90
2023-03-14T23:31:32.143Z,99.90
2023-03-14T23:34:33.124Z,99.90
2023-03-14T23:37:07.791Z,99.90
2023-03-14T23:39:46.122Z,99.90
2023-03-14T23:42:22.764Z,99.90
2023-03-14T23:44:59.829Z,99.90
2023-03-14T23:47:43.095Z,99.90
2023-03-14T23:50:31.459Z,99.90
2023-03-14T23:53:13.166Z,99.90
2023-03-14T23:55:47.144Z,99.90
2023-03-14T23:58:43.000Z,99.90
